This is the latest recevied weather packets stored in our database for station/object OE5ERN-10. If no packets are shown the sender has not sent any weather packets the latest 1 day(s).
| Time | Temp. | Humidity | Pressure | Rain* | Wind** | Luminosity | Snow |
|---|---|---|---|---|---|---|---|
| 1778010932 | 13.89° C | 82% | 1009.2 hPa | 1.02 mm | 0 m/s | - | - |
| 1778010032 | 13.89° C | 80% | 1009.4 hPa | 0.51 mm | 1.79 m/s, 315° | - | - |
| 1778009132 | 14.44° C | 77% | 1009.7 hPa | 0.51 mm | 2.24 m/s, 292° | - | - |
| 1778008232 | 14.44° C | 75% | 1009.8 hPa | 0 mm | 8.94 m/s, 292° | - | - |
| 1778007332 | 15.56° C | 69% | 1009.4 hPa | 0 mm | 3.58 m/s, 270° | - | - |
| 1778006432 | 16.67° C | 64% | 1009.1 hPa | 0 mm | 8.49 m/s, 292° | - | - |
| 1778005532 | 19.44° C | 53% | 1008.7 hPa | 0 mm | 8.49 m/s, 270° | - | - |
| 1778004632 | 21.11° C | 47% | 1008.3 hPa | 0 mm | 7.15 m/s, 270° | - | - |
| 1778003732 | 21.67° C | 44% | 1007.9 hPa | 0 mm | 0 m/s | - | - |
| 1778002832 | 22.78° C | 42% | 1006.9 hPa | 0 mm | 1.34 m/s, 315° | - | - |
| 1778001932 | 23.89° C | 39% | 1006.7 hPa | 0 mm | 0.45 m/s, 292° | - | - |
| 1778001032 | 25.56° C | 35% | 1007 hPa | 0 mm | 0.89 m/s, 292° | - | - |
| 1778000132 | 26.11° C | 34% | 1006.8 hPa | 0 mm | 0.45 m/s, 315° | - | - |
| 1777999232 | 26.67° C | 31% | 1006.8 hPa | 0 mm | 0 m/s | - | - |
| 1777998332 | 27.22° C | 30% | 1006.9 hPa | 0 mm | 0 m/s | - | - |
| 1777997432 | 27.78° C | 29% | 1007.1 hPa | 0 mm | 0 m/s | - | - |
| 1777996539 | 28.89° C | 27% | 1007.1 hPa | 0 mm | 0.89 m/s, 180° | - | - |
| 1777995632 | 28.89° C | 27% | 1007.1 hPa | 0 mm | 0 m/s | - | - |
| 1777994732 | 29.44° C | 26% | 1007.3 hPa | 0 mm | 0 m/s | - | - |
| 1777993832 | 28.33° C | 25% | 1007.4 hPa | 0 mm | 0 m/s | - | - |
| 1777992932 | 29.44° C | 25% | 1007.5 hPa | 0 mm | 1.34 m/s, 157° | - | - |
| 1777992032 | 29.44° C | 25% | 1007.7 hPa | 0 mm | 0 m/s | - | - |
| 1777991132 | 30.56° C | 23% | 1007.7 hPa | 0 mm | 2.68 m/s, 90° | - | - |
| 1777990232 | 32.22° C | 22% | 1008.1 hPa | 0 mm | 0 m/s | - | - |
| 1777989332 | 32.78° C | 22% | 1008.2 hPa | 0 mm | 0 m/s | - | - |
* Rain latest hour (hover to see other rain measurements)
** Current wind speed in m/s (hover to see current wind gust speed)